sensor_id;sensor_type;location;lat;lon;timestamp;P1;durP1;ratioP1;P2;durP2;ratioP2
78752;SDS011;68072;51.688;7.842;2023-04-24T00:00:54;0.85;;;0.65;;
78752;SDS011;68072;51.688;7.842;2023-04-24T00:03:26;0.70;;;0.70;;
78752;SDS011;68072;51.688;7.842;2023-04-24T00:05:53;1.48;;;0.90;;
78752;SDS011;68072;51.688;7.842;2023-04-24T00:08:19;0.70;;;0.70;;
78752;SDS011;68072;51.688;7.842;2023-04-24T00:10:44;1.20;;;0.57;;
78752;SDS011;68072;51.688;7.842;2023-04-24T00:13:10;1.25;;;0.73;;
78752;SDS011;68072;51.688;7.842;2023-04-24T00:15:35;0.85;;;0.60;;
78752;SDS011;68072;51.688;7.842;2023-04-24T00:18:00;0.60;;;0.60;;
78752;SDS011;68072;51.688;7.842;2023-04-24T00:20:26;0.65;;;0.32;;
78752;SDS011;68072;51.688;7.842;2023-04-24T00:22:54;0.82;;;0.73;;
78752;SDS011;68072;51.688;7.842;2023-04-24T00:25:20;0.40;;;0.40;;
78752;SDS011;68072;51.688;7.842;2023-04-24T00:27:45;2.45;;;0.73;;
78752;SDS011;68072;51.688;7.842;2023-04-24T00:30:11;0.68;;;0.68;;
78752;SDS011;68072;51.688;7.842;2023-04-24T00:32:36;0.85;;;0.85;;
78752;SDS011;68072;51.688;7.842;2023-04-24T00:35:02;0.88;;;0.80;;
78752;SDS011;68072;51.688;7.842;2023-04-24T00:37:27;0.60;;;0.60;;
78752;SDS011;68072;51.688;7.842;2023-04-24T00:39:53;0.70;;;0.70;;
78752;SDS011;68072;51.688;7.842;2023-04-24T00:42:19;3.92;;;0.93;;
78752;SDS011;68072;51.688;7.842;2023-04-24T00:44:44;0.73;;;0.73;;
78752;SDS011;68072;51.688;7.842;2023-04-24T00:47:10;1.13;;;0.70;;
78752;SDS011;68072;51.688;7.842;2023-04-24T00:49:36;0.55;;;0.55;;
78752;SDS011;68072;51.688;7.842;2023-04-24T00:52:01;1.55;;;0.82;;
78752;SDS011;68072;51.688;7.842;2023-04-24T00:54:27;1.05;;;0.80;;
78752;SDS011;68072;51.688;7.842;2023-04-24T00:56:52;0.80;;;0.80;;
78752;SDS011;68072;51.688;7.842;2023-04-24T00:59:18;0.70;;;0.70;;
78752;SDS011;68072;51.688;7.842;2023-04-24T01:01:44;1.42;;;0.90;;
78752;SDS011;68072;51.688;7.842;2023-04-24T01:04:10;1.00;;;1.00;;
78752;SDS011;68072;51.688;7.842;2023-04-24T01:09:02;1.00;;;1.00;;
78752;SDS011;68072;51.688;7.842;2023-04-24T01:11:27;0.90;;;0.90;;
78752;SDS011;68072;51.688;7.842;2023-04-24T01:13:54;2.47;;;0.85;;
78752;SDS011;68072;51.688;7.842;2023-04-24T01:16:19;0.80;;;0.80;;
78752;SDS011;68072;51.688;7.842;2023-04-24T01:18:46;1.00;;;1.00;;
78752;SDS011;68072;51.688;7.842;2023-04-24T01:21:12;1.52;;;1.10;;
78752;SDS011;68072;51.688;7.842;2023-04-24T01:23:40;0.85;;;0.85;;
78752;SDS011;68072;51.688;7.842;2023-04-24T01:26:05;1.00;;;1.00;;
78752;SDS011;68072;51.688;7.842;2023-04-24T01:28:31;3.10;;;1.08;;
78752;SDS011;68072;51.688;7.842;2023-04-24T01:30:56;1.50;;;1.23;;
78752;SDS011;68072;51.688;7.842;2023-04-24T01:33:22;1.30;;;1.10;;
78752;SDS011;68072;51.688;7.842;2023-04-24T01:35:48;1.58;;;1.33;;
78752;SDS011;68072;51.688;7.842;2023-04-24T01:38:14;1.48;;;1.38;;
78752;SDS011;68072;51.688;7.842;2023-04-24T01:40:39;2.65;;;1.20;;
78752;SDS011;68072;51.688;7.842;2023-04-24T01:43:05;1.23;;;1.13;;
78752;SDS011;68072;51.688;7.842;2023-04-24T01:45:30;1.25;;;1.25;;
78752;SDS011;68072;51.688;7.842;2023-04-24T01:47:56;1.38;;;1.27;;
78752;SDS011;68072;51.688;7.842;2023-04-24T01:50:21;1.40;;;1.30;;
78752;SDS011;68072;51.688;7.842;2023-04-24T01:52:47;2.78;;;1.40;;
78752;SDS011;68072;51.688;7.842;2023-04-24T01:55:12;1.83;;;1.10;;
78752;SDS011;68072;51.688;7.842;2023-04-24T01:57:38;1.13;;;1.02;;
78752;SDS011;68072;51.688;7.842;2023-04-24T02:00:03;1.00;;;0.90;;
78752;SDS011;68072;51.688;7.842;2023-04-24T02:02:29;1.38;;;1.13;;
78752;SDS011;68072;51.688;7.842;2023-04-24T02:04:55;1.38;;;1.20;;
78752;SDS011;68072;51.688;7.842;2023-04-24T02:07:21;1.60;;;1.02;;
78752;SDS011;68072;51.688;7.842;2023-04-24T02:09:47;1.00;;;1.00;;
78752;SDS011;68072;51.688;7.842;2023-04-24T02:12:12;1.50;;;1.40;;
78752;SDS011;68072;51.688;7.842;2023-04-24T02:14:38;1.20;;;1.10;;
78752;SDS011;68072;51.688;7.842;2023-04-24T02:17:03;1.20;;;1.20;;
78752;SDS011;68072;51.688;7.842;2023-04-24T02:21:55;2.92;;;1.40;;
78752;SDS011;68072;51.688;7.842;2023-04-24T02:24:20;1.48;;;1.30;;
78752;SDS011;68072;51.688;7.842;2023-04-24T02:26:46;2.22;;;1.30;;
78752;SDS011;68072;51.688;7.842;2023-04-24T02:29:11;1.40;;;1.30;;
78752;SDS011;68072;51.688;7.842;2023-04-24T02:31:37;2.67;;;1.50;;
78752;SDS011;68072;51.688;7.842;2023-04-24T02:34:02;1.60;;;1.50;;
78752;SDS011;68072;51.688;7.842;2023-04-24T02:36:27;2.85;;;1.50;;
78752;SDS011;68072;51.688;7.842;2023-04-24T02:38:53;1.23;;;1.13;;
78752;SDS011;68072;51.688;7.842;2023-04-24T02:41:18;2.72;;;1.42;;
78752;SDS011;68072;51.688;7.842;2023-04-24T02:43:44;2.17;;;1.80;;
78752;SDS011;68072;51.688;7.842;2023-04-24T02:46:10;1.70;;;1.60;;
78752;SDS011;68072;51.688;7.842;2023-04-24T02:48:35;2.88;;;1.33;;
78752;SDS011;68072;51.688;7.842;2023-04-24T02:51:00;1.30;;;1.20;;
78752;SDS011;68072;51.688;7.842;2023-04-24T02:53:26;1.80;;;1.27;;
78752;SDS011;68072;51.688;7.842;2023-04-24T02:55:51;2.45;;;1.20;;
78752;SDS011;68072;51.688;7.842;2023-04-24T02:58:17;2.20;;;1.85;;
78752;SDS011;68072;51.688;7.842;2023-04-24T03:00:44;1.20;;;1.20;;
78752;SDS011;68072;51.688;7.842;2023-04-24T03:03:10;2.28;;;1.60;;
78752;SDS011;68072;51.688;7.842;2023-04-24T03:05:35;3.58;;;1.60;;
78752;SDS011;68072;51.688;7.842;2023-04-24T03:08:01;1.42;;;1.33;;
78752;SDS011;68072;51.688;7.842;2023-04-24T03:10:26;5.53;;;1.65;;
78752;SDS011;68072;51.688;7.842;2023-04-24T03:12:52;1.70;;;1.60;;
78752;SDS011;68072;51.688;7.842;2023-04-24T03:15:17;2.20;;;1.30;;
78752;SDS011;68072;51.688;7.842;2023-04-24T03:17:43;1.35;;;1.25;;
78752;SDS011;68072;51.688;7.842;2023-04-24T03:20:08;2.05;;;1.55;;
78752;SDS011;68072;51.688;7.842;2023-04-24T03:22:34;2.00;;;1.85;;
78752;SDS011;68072;51.688;7.842;2023-04-24T03:25:00;2.03;;;1.73;;
78752;SDS011;68072;51.688;7.842;2023-04-24T03:27:25;2.95;;;1.80;;
78752;SDS011;68072;51.688;7.842;2023-04-24T03:29:51;2.30;;;2.10;;
78752;SDS011;68072;51.688;7.842;2023-04-24T03:32:23;2.20;;;1.98;;
78752;SDS011;68072;51.688;7.842;2023-04-24T03:34:49;4.45;;;2.92;;
78752;SDS011;68072;51.688;7.842;2023-04-24T03:37:15;4.85;;;3.10;;
78752;SDS011;68072;51.688;7.842;2023-04-24T03:39:41;8.63;;;3.83;;
78752;SDS011;68072;51.688;7.842;2023-04-24T03:42:06;3.85;;;3.15;;
78752;SDS011;68072;51.688;7.842;2023-04-24T03:44:33;7.55;;;4.13;;
78752;SDS011;68072;51.688;7.842;2023-04-24T03:46:59;4.88;;;3.35;;
78752;SDS011;68072;51.688;7.842;2023-04-24T03:49:24;6.18;;;3.63;;
78752;SDS011;68072;51.688;7.842;2023-04-24T03:51:50;5.25;;;3.97;;
78752;SDS011;68072;51.688;7.842;2023-04-24T03:56:42;5.95;;;4.10;;
78752;SDS011;68072;51.688;7.842;2023-04-24T03:59:07;9.00;;;3.17;;
78752;SDS011;68072;51.688;7.842;2023-04-24T04:01:33;5.03;;;4.10;;
78752;SDS011;68072;51.688;7.842;2023-04-24T04:04:02;7.10;;;5.05;;
78752;SDS011;68072;51.688;7.842;2023-04-24T04:06:28;10.57;;;5.20;;
78752;SDS011;68072;51.688;7.842;2023-04-24T04:08:53;10.05;;;5.18;;
78752;SDS011;68072;51.688;7.842;2023-04-24T04:11:19;11.85;;;4.95;;
78752;SDS011;68072;51.688;7.842;2023-04-24T04:13:44;10.38;;;6.45;;
78752;SDS011;68072;51.688;7.842;2023-04-24T04:16:12;7.40;;;4.93;;
78752;SDS011;68072;51.688;7.842;2023-04-24T04:18:38;8.77;;;5.40;;
78752;SDS011;68072;51.688;7.842;2023-04-24T04:21:03;8.88;;;6.18;;
78752;SDS011;68072;51.688;7.842;2023-04-24T04:23:28;7.80;;;4.90;;
78752;SDS011;68072;51.688;7.842;2023-04-24T04:25:54;6.63;;;4.53;;
78752;SDS011;68072;51.688;7.842;2023-04-24T04:28:20;9.32;;;5.53;;
78752;SDS011;68072;51.688;7.842;2023-04-24T04:30:46;9.13;;;5.95;;
78752;SDS011;68072;51.688;7.842;2023-04-24T04:33:12;11.23;;;5.65;;
78752;SDS011;68072;51.688;7.842;2023-04-24T04:35:38;8.50;;;5.72;;
78752;SDS011;68072;51.688;7.842;2023-04-24T04:38:03;10.23;;;5.70;;
78752;SDS011;68072;51.688;7.842;2023-04-24T04:40:29;11.05;;;5.85;;
78752;SDS011;68072;51.688;7.842;2023-04-24T04:42:55;9.20;;;5.28;;
78752;SDS011;68072;51.688;7.842;2023-04-24T04:45:20;10.82;;;6.63;;
78752;SDS011;68072;51.688;7.842;2023-04-24T04:47:46;12.35;;;6.50;;
78752;SDS011;68072;51.688;7.842;2023-04-24T04:50:12;10.38;;;6.60;;
78752;SDS011;68072;51.688;7.842;2023-04-24T04:52:38;10.48;;;6.63;;
78752;SDS011;68072;51.688;7.842;2023-04-24T04:55:04;11.27;;;5.93;;
78752;SDS011;68072;51.688;7.842;2023-04-24T04:57:30;11.90;;;6.88;;
78752;SDS011;68072;51.688;7.842;2023-04-24T04:59:56;11.20;;;6.82;;
78752;SDS011;68072;51.688;7.842;2023-04-24T05:02:21;11.23;;;6.53;;
78752;SDS011;68072;51.688;7.842;2023-04-24T05:04:46;10.23;;;6.40;;
78752;SDS011;68072;51.688;7.842;2023-04-24T05:07:12;12.82;;;7.13;;
78752;SDS011;68072;51.688;7.842;2023-04-24T05:09:37;12.55;;;7.03;;
78752;SDS011;68072;51.688;7.842;2023-04-24T05:12:03;9.68;;;6.60;;
78752;SDS011;68072;51.688;7.842;2023-04-24T05:14:28;7.55;;;5.65;;
78752;SDS011;68072;51.688;7.842;2023-04-24T05:16:54;14.85;;;7.53;;
78752;SDS011;68072;51.688;7.842;2023-04-24T05:19:19;9.35;;;5.88;;
78752;SDS011;68072;51.688;7.842;2023-04-24T05:21:45;12.75;;;7.05;;
78752;SDS011;68072;51.688;7.842;2023-04-24T05:24:10;11.80;;;7.75;;
78752;SDS011;68072;51.688;7.842;2023-04-24T05:26:36;14.55;;;8.73;;
78752;SDS011;68072;51.688;7.842;2023-04-24T05:29:01;10.27;;;6.05;;
78752;SDS011;68072;51.688;7.842;2023-04-24T05:31:27;9.63;;;6.35;;
78752;SDS011;68072;51.688;7.842;2023-04-24T05:33:52;14.05;;;8.43;;
78752;SDS011;68072;51.688;7.842;2023-04-24T05:36:18;9.65;;;6.50;;
78752;SDS011;68072;51.688;7.842;2023-04-24T05:38:43;10.02;;;6.40;;
78752;SDS011;68072;51.688;7.842;2023-04-24T05:41:09;12.18;;;8.15;;
78752;SDS011;68072;51.688;7.842;2023-04-24T05:43:34;15.30;;;8.13;;
78752;SDS011;68072;51.688;7.842;2023-04-24T05:45:59;9.90;;;5.10;;
78752;SDS011;68072;51.688;7.842;2023-04-24T05:48:25;15.23;;;7.82;;
78752;SDS011;68072;51.688;7.842;2023-04-24T05:50:51;13.75;;;7.43;;
78752;SDS011;68072;51.688;7.842;2023-04-24T05:53:17;14.15;;;7.75;;
78752;SDS011;68072;51.688;7.842;2023-04-24T05:55:43;15.48;;;8.02;;
78752;SDS011;68072;51.688;7.842;2023-04-24T05:58:08;10.90;;;7.22;;
78752;SDS011;68072;51.688;7.842;2023-04-24T06:00:34;12.55;;;7.85;;
78752;SDS011;68072;51.688;7.842;2023-04-24T06:03:00;13.43;;;6.95;;
78752;SDS011;68072;51.688;7.842;2023-04-24T06:05:26;13.77;;;8.65;;
78752;SDS011;68072;51.688;7.842;2023-04-24T06:07:51;10.32;;;7.00;;
78752;SDS011;68072;51.688;7.842;2023-04-24T06:10:17;12.85;;;7.18;;
78752;SDS011;68072;51.688;7.842;2023-04-24T06:12:42;7.65;;;5.78;;
78752;SDS011;68072;51.688;7.842;2023-04-24T06:15:07;9.02;;;6.47;;
78752;SDS011;68072;51.688;7.842;2023-04-24T06:17:33;7.40;;;5.03;;
78752;SDS011;68072;51.688;7.842;2023-04-24T06:19:59;11.35;;;4.88;;
78752;SDS011;68072;51.688;7.842;2023-04-24T06:22:24;8.43;;;5.82;;
78752;SDS011;68072;51.688;7.842;2023-04-24T06:24:49;7.35;;;5.22;;
78752;SDS011;68072;51.688;7.842;2023-04-24T06:27:15;8.63;;;5.80;;
78752;SDS011;68072;51.688;7.842;2023-04-24T06:29:41;9.70;;;5.65;;
78752;SDS011;68072;51.688;7.842;2023-04-24T06:32:06;13.07;;;5.38;;
78752;SDS011;68072;51.688;7.842;2023-04-24T06:34:32;6.68;;;5.40;;
78752;SDS011;68072;51.688;7.842;2023-04-24T06:36:59;6.53;;;4.85;;
78752;SDS011;68072;51.688;7.842;2023-04-24T06:39:25;6.75;;;3.78;;
78752;SDS011;68072;51.688;7.842;2023-04-24T06:41:50;5.63;;;4.45;;
78752;SDS011;68072;51.688;7.842;2023-04-24T06:44:15;6.03;;;4.07;;
78752;SDS011;68072;51.688;7.842;2023-04-24T06:46:41;6.40;;;4.50;;
78752;SDS011;68072;51.688;7.842;2023-04-24T06:49:07;6.53;;;4.30;;
78752;SDS011;68072;51.688;7.842;2023-04-24T06:51:32;6.43;;;4.15;;
78752;SDS011;68072;51.688;7.842;2023-04-24T06:53:58;6.00;;;4.40;;
78752;SDS011;68072;51.688;7.842;2023-04-24T06:56:23;7.45;;;5.03;;
78752;SDS011;68072;51.688;7.842;2023-04-24T06:58:50;7.15;;;4.45;;
78752;SDS011;68072;51.688;7.842;2023-04-24T07:01:16;5.20;;;4.57;;
78752;SDS011;68072;51.688;7.842;2023-04-24T07:03:41;7.15;;;4.88;;
78752;SDS011;68072;51.688;7.842;2023-04-24T07:06:07;4.55;;;3.85;;
78752;SDS011;68072;51.688;7.842;2023-04-24T07:08:33;7.75;;;4.45;;
78752;SDS011;68072;51.688;7.842;2023-04-24T07:10:58;6.35;;;4.03;;
78752;SDS011;68072;51.688;7.842;2023-04-24T07:13:24;4.82;;;3.90;;
78752;SDS011;68072;51.688;7.842;2023-04-24T07:15:50;6.40;;;4.00;;
78752;SDS011;68072;51.688;7.842;2023-04-24T07:18:17;5.00;;;3.45;;
78752;SDS011;68072;51.688;7.842;2023-04-24T07:20:43;6.50;;;4.55;;
78752;SDS011;68072;51.688;7.842;2023-04-24T07:23:08;6.38;;;4.25;;
78752;SDS011;68072;51.688;7.842;2023-04-24T07:25:34;5.13;;;2.97;;
78752;SDS011;68072;51.688;7.842;2023-04-24T07:27:59;4.72;;;3.58;;
78752;SDS011;68072;51.688;7.842;2023-04-24T07:30:25;4.03;;;3.30;;
78752;SDS011;68072;51.688;7.842;2023-04-24T07:32:53;3.75;;;3.28;;
78752;SDS011;68072;51.688;7.842;2023-04-24T07:35:19;3.50;;;2.78;;
78752;SDS011;68072;51.688;7.842;2023-04-24T07:37:45;4.45;;;2.60;;
78752;SDS011;68072;51.688;7.842;2023-04-24T07:40:13;3.20;;;2.90;;
78752;SDS011;68072;51.688;7.842;2023-04-24T07:42:39;2.83;;;2.53;;
78752;SDS011;68072;51.688;7.842;2023-04-24T07:45:04;2.60;;;2.40;;
78752;SDS011;68072;51.688;7.842;2023-04-24T07:47:31;4.13;;;2.55;;
78752;SDS011;68072;51.688;7.842;2023-04-24T07:49:56;4.65;;;2.13;;
78752;SDS011;68072;51.688;7.842;2023-04-24T07:52:22;2.92;;;2.72;;
78752;SDS011;68072;51.688;7.842;2023-04-24T07:54:48;2.50;;;2.30;;
78752;SDS011;68072;51.688;7.842;2023-04-24T07:57:15;2.65;;;2.45;;
78752;SDS011;68072;51.688;7.842;2023-04-24T07:59:40;3.10;;;2.58;;
78752;SDS011;68072;51.688;7.842;2023-04-24T08:02:09;1.92;;;1.83;;
78752;SDS011;68072;51.688;7.842;2023-04-24T08:04:38;2.78;;;2.35;;
78752;SDS011;68072;51.688;7.842;2023-04-24T08:07:17;2.47;;;2.20;;
78752;SDS011;68072;51.688;7.842;2023-04-24T08:09:46;6.82;;;2.47;;
78752;SDS011;68072;51.688;7.842;2023-04-24T08:12:12;2.60;;;2.40;;
78752;SDS011;68072;51.688;7.842;2023-04-24T08:14:37;3.55;;;1.77;;
78752;SDS011;68072;51.688;7.842;2023-04-24T08:17:07;3.40;;;1.92;;
78752;SDS011;68072;51.688;7.842;2023-04-24T08:19:33;3.00;;;2.40;;
78752;SDS011;68072;51.688;7.842;2023-04-24T08:22:02;2.95;;;2.58;;
78752;SDS011;68072;51.688;7.842;2023-04-24T08:27:41;2.95;;;2.50;;
78752;SDS011;68072;51.688;7.842;2023-04-24T08:30:11;2.97;;;2.70;;
78752;SDS011;68072;51.688;7.842;2023-04-24T08:38:28;2.78;;;2.58;;
78752;SDS011;68072;51.688;7.842;2023-04-24T08:41:01;4.00;;;2.60;;
78752;SDS011;68072;51.688;7.842;2023-04-24T08:43:32;2.20;;;1.65;;
78752;SDS011;68072;51.688;7.842;2023-04-24T08:49:07;1.70;;;1.60;;
78752;SDS011;68072;51.688;7.842;2023-04-24T08:51:34;1.45;;;1.35;;
78752;SDS011;68072;51.688;7.842;2023-04-24T08:54:26;3.47;;;1.83;;
78752;SDS011;68072;51.688;7.842;2023-04-24T08:57:00;1.45;;;1.35;;
78752;SDS011;68072;51.688;7.842;2023-04-24T08:59:26;1.20;;;1.20;;
78752;SDS011;68072;51.688;7.842;2023-04-24T09:02:10;1.70;;;1.60;;
78752;SDS011;68072;51.688;7.842;2023-04-24T09:04:37;1.67;;;1.42;;
78752;SDS011;68072;51.688;7.842;2023-04-24T09:07:05;2.03;;;1.92;;
78752;SDS011;68072;51.688;7.842;2023-04-24T09:09:31;2.28;;;1.77;;
78752;SDS011;68072;51.688;7.842;2023-04-24T09:14:23;0.90;;;0.90;;
78752;SDS011;68072;51.688;7.842;2023-04-24T09:16:49;0.88;;;0.88;;
78752;SDS011;68072;51.688;7.842;2023-04-24T09:19:16;1.27;;;1.17;;
78752;SDS011;68072;51.688;7.842;2023-04-24T09:21:42;1.17;;;1.13;;
78752;SDS011;68072;51.688;7.842;2023-04-24T09:24:15;1.52;;;1.42;;
78752;SDS011;68072;51.688;7.842;2023-04-24T09:26:47;1.42;;;1.40;;
78752;SDS011;68072;51.688;7.842;2023-04-24T09:29:23;1.38;;;1.23;;
78752;SDS011;68072;51.688;7.842;2023-04-24T09:31:49;1.52;;;1.48;;
78752;SDS011;68072;51.688;7.842;2023-04-24T09:34:18;1.60;;;1.50;;
78752;SDS011;68072;51.688;7.842;2023-04-24T09:36:46;1.27;;;1.17;;
78752;SDS011;68072;51.688;7.842;2023-04-24T09:39:12;1.45;;;1.35;;
78752;SDS011;68072;51.688;7.842;2023-04-24T09:41:47;1.10;;;1.10;;
78752;SDS011;68072;51.688;7.842;2023-04-24T09:44:18;1.58;;;1.10;;
78752;SDS011;68072;51.688;7.842;2023-04-24T09:46:51;1.30;;;1.20;;
78752;SDS011;68072;51.688;7.842;2023-04-24T09:49:25;1.10;;;1.10;;
78752;SDS011;68072;51.688;7.842;2023-04-24T09:52:12;1.17;;;0.90;;
78752;SDS011;68072;51.688;7.842;2023-04-24T09:54:38;0.90;;;0.90;;
78752;SDS011;68072;51.688;7.842;2023-04-24T09:57:03;1.00;;;1.00;;
78752;SDS011;68072;51.688;7.842;2023-04-24T10:01:57;0.88;;;0.88;;
78752;SDS011;68072;51.688;7.842;2023-04-24T10:04:24;1.23;;;1.20;;
78752;SDS011;68072;51.688;7.842;2023-04-24T10:06:51;1.15;;;1.13;;
78752;SDS011;68072;51.688;7.842;2023-04-24T10:09:19;1.27;;;1.23;;
78752;SDS011;68072;51.688;7.842;2023-04-24T10:11:46;1.70;;;1.60;;
78752;SDS011;68072;51.688;7.842;2023-04-24T10:14:20;1.77;;;1.67;;
78752;SDS011;68072;51.688;7.842;2023-04-24T10:16:50;1.85;;;1.75;;
78752;SDS011;68072;51.688;7.842;2023-04-24T10:19:18;2.45;;;1.95;;
78752;SDS011;68072;51.688;7.842;2023-04-24T10:21:44;2.35;;;2.13;;
78752;SDS011;68072;51.688;7.842;2023-04-24T10:24:16;2.47;;;2.28;;
78752;SDS011;68072;51.688;7.842;2023-04-24T10:26:43;3.08;;;2.78;;
78752;SDS011;68072;51.688;7.842;2023-04-24T10:29:10;5.95;;;4.20;;
78752;SDS011;68072;51.688;7.842;2023-04-24T10:31:37;5.93;;;3.83;;
78752;SDS011;68072;51.688;7.842;2023-04-24T10:34:07;4.85;;;3.72;;
78752;SDS011;68072;51.688;7.842;2023-04-24T10:36:34;5.43;;;3.97;;
78752;SDS011;68072;51.688;7.842;2023-04-24T10:39:03;6.22;;;3.85;;
78752;SDS011;68072;51.688;7.842;2023-04-24T10:41:31;4.57;;;3.72;;
78752;SDS011;68072;51.688;7.842;2023-04-24T10:44:31;2.80;;;2.15;;
78752;SDS011;68072;51.688;7.842;2023-04-24T10:46:52;3.88;;;3.38;;
78752;SDS011;68072;51.688;7.842;2023-04-24T10:49:19;4.15;;;3.67;;
78752;SDS011;68072;51.688;7.842;2023-04-24T10:51:53;2.95;;;2.33;;
78752;SDS011;68072;51.688;7.842;2023-04-24T10:54:22;3.85;;;2.90;;
78752;SDS011;68072;51.688;7.842;2023-04-24T10:56:49;3.47;;;3.08;;
78752;SDS011;68072;51.688;7.842;2023-04-24T10:59:23;5.35;;;2.90;;
78752;SDS011;68072;51.688;7.842;2023-04-24T11:01:52;7.40;;;2.35;;
78752;SDS011;68072;51.688;7.842;2023-04-24T11:04:28;1.48;;;1.38;;
78752;SDS011;68072;51.688;7.842;2023-04-24T11:06:57;2.28;;;1.70;;
78752;SDS011;68072;51.688;7.842;2023-04-24T11:09:26;1.80;;;1.65;;
78752;SDS011;68072;51.688;7.842;2023-04-24T11:11:51;1.67;;;1.58;;
78752;SDS011;68072;51.688;7.842;2023-04-24T11:20:10;2.63;;;2.20;;
78752;SDS011;68072;51.688;7.842;2023-04-24T11:22:39;4.72;;;2.70;;
78752;SDS011;68072;51.688;7.842;2023-04-24T11:25:05;4.22;;;2.92;;
78752;SDS011;68072;51.688;7.842;2023-04-24T11:27:37;5.32;;;2.75;;
78752;SDS011;68072;51.688;7.842;2023-04-24T11:30:04;3.00;;;2.00;;
78752;SDS011;68072;51.688;7.842;2023-04-24T11:35:00;5.05;;;3.25;;
78752;SDS011;68072;51.688;7.842;2023-04-24T11:37:38;4.75;;;2.95;;
78752;SDS011;68072;51.688;7.842;2023-04-24T11:40:05;6.97;;;3.75;;
78752;SDS011;68072;51.688;7.842;2023-04-24T11:42:35;3.28;;;2.85;;
78752;SDS011;68072;51.688;7.842;2023-04-24T11:45:01;5.03;;;3.33;;
78752;SDS011;68072;51.688;7.842;2023-04-24T11:47:29;4.05;;;3.00;;
78752;SDS011;68072;51.688;7.842;2023-04-24T11:49:55;3.60;;;2.63;;
78752;SDS011;68072;51.688;7.842;2023-04-24T11:52:20;4.07;;;2.63;;
78752;SDS011;68072;51.688;7.842;2023-04-24T11:54:46;5.20;;;3.53;;
78752;SDS011;68072;51.688;7.842;2023-04-24T11:57:13;3.70;;;3.08;;
78752;SDS011;68072;51.688;7.842;2023-04-24T11:59:38;6.32;;;2.67;;
78752;SDS011;68072;51.688;7.842;2023-04-24T12:02:04;1.73;;;1.63;;
78752;SDS011;68072;51.688;7.842;2023-04-24T12:04:38;5.78;;;3.63;;
78752;SDS011;68072;51.688;7.842;2023-04-24T12:07:05;6.63;;;4.00;;
78752;SDS011;68072;51.688;7.842;2023-04-24T12:12:26;9.18;;;4.63;;
78752;SDS011;68072;51.688;7.842;2023-04-24T12:14:53;6.20;;;3.67;;
78752;SDS011;68072;51.688;7.842;2023-04-24T12:17:24;7.82;;;3.13;;
78752;SDS011;68072;51.688;7.842;2023-04-24T12:19:50;8.05;;;4.22;;
78752;SDS011;68072;51.688;7.842;2023-04-24T12:22:16;9.77;;;4.13;;
78752;SDS011;68072;51.688;7.842;2023-04-24T12:25:00;10.10;;;4.47;;
78752;SDS011;68072;51.688;7.842;2023-04-24T12:27:29;13.95;;;3.60;;
78752;SDS011;68072;51.688;7.842;2023-04-24T12:29:56;13.95;;;4.40;;
78752;SDS011;68072;51.688;7.842;2023-04-24T12:32:23;12.25;;;4.85;;
78752;SDS011;68072;51.688;7.842;2023-04-24T12:34:50;8.13;;;4.63;;
78752;SDS011;68072;51.688;7.842;2023-04-24T12:37:16;4.85;;;2.55;;
78752;SDS011;68072;51.688;7.842;2023-04-24T12:40:01;11.25;;;4.65;;
78752;SDS011;68072;51.688;7.842;2023-04-24T12:42:27;6.32;;;3.50;;
78752;SDS011;68072;51.688;7.842;2023-04-24T12:47:25;8.70;;;4.80;;
78752;SDS011;68072;51.688;7.842;2023-04-24T12:49:51;10.40;;;5.05;;
78752;SDS011;68072;51.688;7.842;2023-04-24T12:52:19;9.23;;;4.18;;
78752;SDS011;68072;51.688;7.842;2023-04-24T12:54:45;10.27;;;4.50;;
78752;SDS011;68072;51.688;7.842;2023-04-24T12:57:11;11.90;;;3.95;;
78752;SDS011;68072;51.688;7.842;2023-04-24T12:59:36;12.25;;;5.10;;
78752;SDS011;68072;51.688;7.842;2023-04-24T13:02:01;12.57;;;4.40;;
78752;SDS011;68072;51.688;7.842;2023-04-24T13:04:27;8.00;;;3.95;;
78752;SDS011;68072;51.688;7.842;2023-04-24T13:06:53;14.15;;;5.55;;
78752;SDS011;68072;51.688;7.842;2023-04-24T13:09:18;9.55;;;5.20;;
78752;SDS011;68072;51.688;7.842;2023-04-24T13:11:43;11.52;;;5.35;;
78752;SDS011;68072;51.688;7.842;2023-04-24T13:14:09;12.90;;;7.05;;
78752;SDS011;68072;51.688;7.842;2023-04-24T13:16:34;14.30;;;5.60;;
78752;SDS011;68072;51.688;7.842;2023-04-24T13:19:00;11.43;;;5.65;;
78752;SDS011;68072;51.688;7.842;2023-04-24T13:21:25;9.70;;;5.72;;
78752;SDS011;68072;51.688;7.842;2023-04-24T13:23:51;15.80;;;5.53;;
78752;SDS011;68072;51.688;7.842;2023-04-24T13:26:17;7.20;;;4.75;;
78752;SDS011;68072;51.688;7.842;2023-04-24T13:28:42;8.82;;;4.13;;
78752;SDS011;68072;51.688;7.842;2023-04-24T13:31:07;8.60;;;3.33;;
78752;SDS011;68072;51.688;7.842;2023-04-24T13:33:39;6.78;;;2.88;;
78752;SDS011;68072;51.688;7.842;2023-04-24T13:36:05;4.07;;;2.85;;
78752;SDS011;68072;51.688;7.842;2023-04-24T13:38:33;9.23;;;3.42;;
78752;SDS011;68072;51.688;7.842;2023-04-24T13:40:59;6.15;;;3.10;;
78752;SDS011;68072;51.688;7.842;2023-04-24T13:43:24;6.30;;;2.85;;
78752;SDS011;68072;51.688;7.842;2023-04-24T13:46:32;4.03;;;2.58;;
78752;SDS011;68072;51.688;7.842;2023-04-24T13:48:58;5.80;;;2.95;;
78752;SDS011;68072;51.688;7.842;2023-04-24T13:51:25;3.42;;;2.67;;
78752;SDS011;68072;51.688;7.842;2023-04-24T13:53:57;4.43;;;2.67;;
78752;SDS011;68072;51.688;7.842;2023-04-24T13:56:29;5.00;;;2.40;;
78752;SDS011;68072;51.688;7.842;2023-04-24T13:58:54;1.60;;;1.30;;
78752;SDS011;68072;51.688;7.842;2023-04-24T14:01:20;2.17;;;1.98;;
78752;SDS011;68072;51.688;7.842;2023-04-24T14:03:49;7.45;;;2.97;;
78752;SDS011;68072;51.688;7.842;2023-04-24T14:06:15;7.18;;;3.35;;
78752;SDS011;68072;51.688;7.842;2023-04-24T14:08:40;4.90;;;2.78;;
78752;SDS011;68072;51.688;7.842;2023-04-24T14:11:06;3.28;;;2.13;;
78752;SDS011;68072;51.688;7.842;2023-04-24T14:13:32;2.20;;;1.80;;
78752;SDS011;68072;51.688;7.842;2023-04-24T14:15:57;4.93;;;2.65;;
78752;SDS011;68072;51.688;7.842;2023-04-24T14:18:23;3.80;;;3.15;;
78752;SDS011;68072;51.688;7.842;2023-04-24T14:20:48;5.63;;;2.85;;
78752;SDS011;68072;51.688;7.842;2023-04-24T14:23:14;10.35;;;2.97;;
78752;SDS011;68072;51.688;7.842;2023-04-24T14:25:40;6.82;;;3.08;;
78752;SDS011;68072;51.688;7.842;2023-04-24T14:28:06;7.57;;;3.55;;
78752;SDS011;68072;51.688;7.842;2023-04-24T14:30:32;3.58;;;2.63;;
78752;SDS011;68072;51.688;7.842;2023-04-24T14:32:57;2.40;;;2.20;;
78752;SDS011;68072;51.688;7.842;2023-04-24T14:35:23;5.05;;;2.92;;
78752;SDS011;68072;51.688;7.842;2023-04-24T14:37:48;2.30;;;2.00;;
78752;SDS011;68072;51.688;7.842;2023-04-24T14:40:14;3.17;;;1.90;;
78752;SDS011;68072;51.688;7.842;2023-04-24T14:42:40;3.47;;;2.03;;
78752;SDS011;68072;51.688;7.842;2023-04-24T14:45:07;2.55;;;2.10;;
78752;SDS011;68072;51.688;7.842;2023-04-24T14:48:19;4.25;;;2.15;;
78752;SDS011;68072;51.688;7.842;2023-04-24T14:50:44;3.85;;;2.42;;
78752;SDS011;68072;51.688;7.842;2023-04-24T14:53:10;2.00;;;1.90;;
78752;SDS011;68072;51.688;7.842;2023-04-24T14:55:35;5.38;;;2.40;;
78752;SDS011;68072;51.688;7.842;2023-04-24T14:58:09;5.07;;;2.50;;
78752;SDS011;68072;51.688;7.842;2023-04-24T15:00:40;3.85;;;2.65;;
78752;SDS011;68072;51.688;7.842;2023-04-24T15:03:05;3.92;;;2.70;;
78752;SDS011;68072;51.688;7.842;2023-04-24T15:05:31;6.10;;;2.63;;
78752;SDS011;68072;51.688;7.842;2023-04-24T15:07:56;1.67;;;1.52;;
78752;SDS011;68072;51.688;7.842;2023-04-24T15:10:22;2.20;;;2.00;;
78752;SDS011;68072;51.688;7.842;2023-04-24T15:15:14;6.07;;;2.30;;
78752;SDS011;68072;51.688;7.842;2023-04-24T15:17:39;3.63;;;2.03;;
78752;SDS011;68072;51.688;7.842;2023-04-24T15:20:05;6.32;;;2.78;;
78752;SDS011;68072;51.688;7.842;2023-04-24T15:22:31;4.85;;;2.83;;
78752;SDS011;68072;51.688;7.842;2023-04-24T15:24:57;2.72;;;1.92;;